Time;durP1;ratioP1;P1;durP2;ratioP2;P2;SDS_P1;SDS_P2;PMS_P1;PMS_P2;Temp;Humidity;BMP_temperature;BMP_pressure;BME280_temperature;BME280_humidity;BME280_pressure;Samples;Min_cycle;Max_cycle;Signal;HPM_P1;HPM_P2
2023/05/20 00:01:57;;;;;;;3.75;1.85;;;;;;;18.72;48.63;102362.59;6124938;23;20006;-55
2023/05/20 00:04:23;;;;;;;2.50;1.55;;;;;;;18.71;48.81;102350.06;6125283;23;20034;-54
2023/05/20 00:06:48;;;;;;;3.92;1.63;;;;;;;18.70;48.85;102348.38;6099007;23;20013;-54
2023/05/20 00:09:14;;;;;;;3.80;1.77;;;;;;;18.71;48.63;102341.97;6125030;23;20037;-55
2023/05/20 00:11:39;;;;;;;3.10;1.60;;;;;;;18.70;48.69;102345.66;6124561;23;20017;-54
2023/05/20 00:14:05;;;;;;;2.72;1.60;;;;;;;18.70;48.70;102339.41;6124734;23;20037;-54
2023/05/20 00:16:30;;;;;;;1.95;1.48;;;;;;;18.70;48.73;102348.38;6124975;23;20009;-54
2023/05/20 00:18:56;;;;;;;4.40;1.83;;;;;;;18.70;48.75;102344.81;6125092;23;20094;-54
2023/05/20 00:21:21;;;;;;;2.28;1.60;;;;;;;18.69;48.68;102356.56;6124590;23;20016;-54
2023/05/20 00:23:47;;;;;;;3.58;1.52;;;;;;;18.68;48.75;102352.16;6125125;23;20005;-54
2023/05/20 00:26:12;;;;;;;3.80;1.80;;;;;;;18.68;48.95;102355.72;6124588;23;20016;-54
2023/05/20 00:28:37;;;;;;;1.98;1.42;;;;;;;18.67;49.00;102353.97;6124560;23;20009;-54
2023/05/20 00:31:03;;;;;;;3.83;2.10;;;;;;;18.68;48.96;102353.03;6124663;23;20664;-54
2023/05/20 00:33:29;;;;;;;4.45;1.63;;;;;;;18.68;48.95;102354.84;6098899;23;20010;-55
2023/05/20 00:35:54;;;;;;;3.65;1.90;;;;;;;18.67;48.90;102350.44;6125166;23;20021;-55
2023/05/20 00:38:20;;;;;;;1.83;1.55;;;;;;;18.68;49.09;102349.47;6124784;23;20314;-55
2023/05/20 00:40:45;;;;;;;1.95;1.63;;;;;;;18.68;49.00;102352.16;6124812;23;20018;-55
2023/05/20 00:43:11;;;;;;;2.92;1.60;;;;;;;18.67;49.00;102345.88;6124498;23;20392;-55
2023/05/20 00:45:37;;;;;;;2.92;1.33;;;;;;;18.67;49.03;102337.78;6124383;23;20006;-55
2023/05/20 00:48:03;;;;;;;3.47;1.73;;;;;;;18.65;49.10;102339.75;6124340;23;20017;-55
2023/05/20 00:50:30;;;;;;;4.53;1.70;;;;;;;18.64;49.20;102340.72;6125072;23;20002;-55
2023/05/20 00:52:55;;;;;;;1.77;1.20;;;;;;;18.65;49.22;102341.59;6124579;23;20013;-55
2023/05/20 00:55:21;;;;;;;3.00;1.60;;;;;;;18.65;49.00;102344.28;6124580;23;20002;-55
2023/05/20 00:57:48;;;;;;;1.75;1.48;;;;;;;18.65;49.26;102342.44;6124395;23;20033;-55
2023/05/20 01:00:14;;;;;;;4.55;1.67;;;;;;;18.63;49.18;102341.69;6124535;23;20016;-55
2023/05/20 01:02:39;;;;;;;4.85;1.75;;;;;;;18.64;49.53;102337.16;6124383;23;20030;-55
2023/05/20 01:05:05;;;;;;;4.47;1.80;;;;;;;18.63;49.18;102332.75;6124456;23;20013;-55
2023/05/20 01:07:31;;;;;;;2.42;1.45;;;;;;;18.62;49.03;102329.19;6124745;23;20005;-55
2023/05/20 01:09:57;;;;;;;2.47;1.52;;;;;;;18.62;49.17;102339.09;6099411;23;20104;-55
2023/05/20 01:12:37;;;;;;;4.68;2.47;;;;;;;18.61;48.99;102332.84;6123947;23;20026;-55
2023/05/20 01:15:10;;;;;;;3.58;1.90;;;;;;;18.62;49.19;102337.28;6124551;23;20072;-55
2023/05/20 01:17:38;;;;;;;3.38;1.73;;;;;;;18.62;49.12;102331.00;6124256;23;20097;-55
2023/05/20 01:20:09;;;;;;;2.10;1.58;;;;;;;18.61;49.32;102332.00;6123967;23;20018;-55
2023/05/20 01:22:36;;;;;;;3.00;1.63;;;;;;;18.61;49.25;102332.84;6124375;23;20328;-55
2023/05/20 01:25:03;;;;;;;2.40;1.73;;;;;;;18.60;49.55;102324.88;6124549;23;20081;-55
2023/05/20 01:27:29;;;;;;;4.25;1.80;;;;;;;18.60;49.16;102331.16;6125017;23;20005;-55
2023/05/20 01:29:54;;;;;;;2.45;1.58;;;;;;;18.60;49.50;102328.44;6124257;23;20430;-55
2023/05/20 01:32:23;;;;;;;4.00;1.92;;;;;;;18.59;49.38;102326.72;6098234;23;20005;-55
2023/05/20 01:34:51;;;;;;;2.35;1.70;;;;;;;18.57;49.22;102320.56;6123892;23;20049;-55
2023/05/20 01:37:18;;;;;;;2.35;1.85;;;;;;;18.57;49.34;102320.56;6124034;23;20021;-55
2023/05/20 01:39:45;;;;;;;2.45;1.50;;;;;;;18.57;49.79;102317.88;6124487;23;20010;-55
2023/05/20 01:42:12;;;;;;;4.70;1.80;;;;;;;18.56;49.08;102308.06;6124223;23;20336;-55
2023/05/20 01:44:38;;;;;;;3.28;1.83;;;;;;;18.56;49.23;102314.34;6123713;23;20041;-55
2023/05/20 01:47:03;;;;;;;2.67;1.70;;;;;;;18.55;49.32;102312.59;6124116;23;20010;-56
2023/05/20 01:49:29;;;;;;;2.38;1.52;;;;;;;18.56;49.41;102318.84;6124476;23;20013;-55
2023/05/20 01:51:55;;;;;;;2.85;1.77;;;;;;;18.54;49.40;102321.69;6123808;23;20022;-55
2023/05/20 01:54:20;;;;;;;3.20;1.60;;;;;;;18.55;49.32;102306.34;6124047;23;20041;-55
2023/05/20 01:56:46;;;;;;;2.88;1.55;;;;;;;18.54;49.44;102310.00;6123764;23;20446;-55
2023/05/20 01:59:12;;;;;;;3.38;1.77;;;;;;;18.53;49.23;102311.00;6097957;23;20006;-55
2023/05/20 02:01:37;;;;;;;2.72;1.92;;;;;;;18.53;49.30;102302.91;6123754;23;20005;-55
2023/05/20 02:04:03;;;;;;;2.97;1.90;;;;;;;18.52;49.55;102307.44;6123612;23;20006;-55
2023/05/20 02:06:28;;;;;;;1.77;1.50;;;;;;;18.52;49.18;102311.97;6124116;23;20010;-55
2023/05/20 02:08:55;;;;;;;5.10;1.80;;;;;;;18.52;49.30;102314.66;6123855;23;20330;-55
2023/05/20 02:11:21;;;;;;;3.55;1.77;;;;;;;18.51;49.35;102304.84;6097897;23;20006;-55
2023/05/20 02:13:46;;;;;;;4.15;1.90;;;;;;;18.51;49.22;102299.47;6123408;23;20467;-55
2023/05/20 02:16:11;;;;;;;3.60;1.80;;;;;;;18.50;49.25;102300.41;6123721;23;20077;-55
2023/05/20 02:18:37;;;;;;;2.08;1.63;;;;;;;18.51;49.10;102304.84;6123489;23;20310;-55
2023/05/20 02:21:04;;;;;;;2.30;1.90;;;;;;;18.49;49.38;102306.81;6124207;23;20337;-55
2023/05/20 02:23:32;;;;;;;1.92;1.70;;;;;;;18.49;49.19;102314.91;6124515;23;20010;-55
2023/05/20 02:25:58;;;;;;;1.98;1.40;;;;;;;18.48;49.26;102300.53;6123283;23;20006;-55
2023/05/20 02:28:24;;;;;;;3.80;1.50;;;;;;;18.48;49.18;102300.53;6123622;23;20064;-55
2023/05/20 02:30:51;;;;;;;2.30;1.55;;;;;;;18.48;49.18;102294.28;6123416;23;20068;-55
2023/05/20 02:33:18;;;;;;;5.10;1.98;;;;;;;18.47;49.19;102304.22;6123013;23;20064;-55
2023/05/20 02:35:43;;;;;;;4.07;1.77;;;;;;;18.46;49.10;102291.69;6123386;23;20002;-55
2023/05/20 02:38:09;;;;;;;4.63;1.75;;;;;;;18.47;48.92;102292.59;6123440;23;20016;-55
2023/05/20 02:40:35;;;;;;;3.38;1.88;;;;;;;18.47;49.16;102295.28;6123531;23;20141;-55
2023/05/20 02:43:00;;;;;;;2.85;1.70;;;;;;;18.47;49.13;102303.38;6123941;23;20829;-55
2023/05/20 02:45:26;;;;;;;3.63;1.80;;;;;;;18.46;49.10;102297.09;6123616;23;20017;-55
2023/05/20 02:47:51;;;;;;;3.10;1.88;;;;;;;18.46;49.13;102301.63;6123288;23;20449;-55
2023/05/20 02:50:17;;;;;;;6.63;1.90;;;;;;;18.45;49.09;102294.50;6123092;23;20017;-55
2023/05/20 02:52:42;;;;;;;3.38;1.80;;;;;;;18.45;49.16;102294.50;6123332;23;20017;-55
2023/05/20 02:55:08;;;;;;;2.63;1.77;;;;;;;18.43;49.10;102293.75;6123349;23;20041;-55
2023/05/20 02:57:37;;;;;;;3.17;2.08;;;;;;;18.43;49.11;102293.75;6098145;23;20014;-55
2023/05/20 03:00:08;;;;;;;2.72;1.90;;;;;;;18.42;49.02;102295.59;6123931;23;20006;-55
2023/05/20 03:02:35;;;;;;;3.95;1.60;;;;;;;18.42;49.21;102289.34;6099545;23;20006;-55
2023/05/20 03:05:01;;;;;;;2.72;1.55;;;;;;;18.41;49.10;102291.19;6123339;23;20493;-55
2023/05/20 03:07:26;;;;;;;2.33;1.70;;;;;;;18.42;49.26;102289.34;6123437;23;20010;-55
2023/05/20 03:09:52;;;;;;;4.47;2.03;;;;;;;18.42;49.06;102294.75;6123710;23;20048;-55
2023/05/20 03:12:18;;;;;;;3.13;1.70;;;;;;;18.40;49.23;102285.91;6122899;23;20088;-55
2023/05/20 03:14:43;;;;;;;1.85;1.65;;;;;;;18.40;49.18;102291.31;6123214;23;20086;-55
2023/05/20 03:17:09;;;;;;;2.13;1.70;;;;;;;18.39;49.02;102289.56;6123146;23;20010;-55
2023/05/20 03:19:34;;;;;;;3.88;1.80;;;;;;;18.39;48.92;102289.56;6123890;23;20085;-55
2023/05/20 03:22:00;;;;;;;1.83;1.58;;;;;;;18.39;48.98;102286.88;6123294;23;20480;-55
2023/05/20 03:24:27;;;;;;;2.58;1.80;;;;;;;18.38;49.11;102282.47;6123378;23;20725;-55
2023/05/20 03:26:52;;;;;;;2.22;1.90;;;;;;;18.38;49.19;102287.88;6122985;23;20006;-55
2023/05/20 03:29:18;;;;;;;2.20;2.00;;;;;;;18.38;49.05;102293.25;6122789;23;20084;-55
2023/05/20 03:31:43;;;;;;;3.33;1.90;;;;;;;18.37;49.01;102289.69;6123039;23;20013;-55
2023/05/20 03:34:09;;;;;;;2.97;1.90;;;;;;;18.38;48.92;102293.25;6122897;23;20006;-55
2023/05/20 03:36:34;;;;;;;3.95;1.85;;;;;;;18.36;49.23;102290.66;6123461;23;20002;-55
2023/05/20 03:39:00;;;;;;;2.65;1.80;;;;;;;18.36;49.09;102286.13;6097448;23;20009;-55
2023/05/20 03:41:26;;;;;;;2.90;1.88;;;;;;;18.35;48.87;102294.31;6123385;23;20337;-55
2023/05/20 03:43:52;;;;;;;2.42;1.70;;;;;;;18.35;49.09;102292.50;6122935;23;20010;-55
2023/05/20 03:46:17;;;;;;;3.47;1.50;;;;;;;18.35;49.03;102286.22;6097127;23;20084;-55
2023/05/20 03:48:42;;;;;;;3.50;1.80;;;;;;;18.35;48.91;102286.22;6122814;23;20010;-55
2023/05/20 03:51:08;;;;;;;2.10;1.90;;;;;;;18.34;48.98;102287.22;6123005;23;20005;-55
2023/05/20 03:53:33;;;;;;;3.42;1.70;;;;;;;18.34;48.91;102287.22;6123646;23;20010;-55
2023/05/20 03:55:58;;;;;;;3.63;1.77;;;;;;;18.34;48.89;102281.84;6123032;23;20077;-55
2023/05/20 03:58:25;;;;;;;2.28;1.80;;;;;;;18.34;48.87;102288.06;6123207;23;20014;-55
2023/05/20 04:00:50;;;;;;;2.70;1.70;;;;;;;18.33;49.11;102285.50;6097078;23;20172;-55
2023/05/20 04:03:15;;;;;;;3.72;2.17;;;;;;;18.34;48.97;102285.38;6122666;23;20037;-55
2023/05/20 04:05:41;;;;;;;2.72;1.70;;;;;;;18.34;49.03;102280.00;6122782;23;20013;-55
2023/05/20 04:08:08;;;;;;;2.75;2.03;;;;;;;18.33;48.94;102286.38;6123510;23;20010;-55
2023/05/20 04:10:34;;;;;;;2.88;1.77;;;;;;;18.33;48.91;102282.78;6123891;23;20014;-55
2023/05/20 04:12:59;;;;;;;4.22;1.75;;;;;;;18.33;48.89;102286.38;6122647;23;20021;-55
2023/05/20 04:15:25;;;;;;;2.13;1.73;;;;;;;18.32;48.98;102284.63;6122795;23;20384;-55
2023/05/20 04:17:51;;;;;;;4.18;1.70;;;;;;;18.31;49.19;102282.06;6123010;23;20006;-55
2023/05/20 04:20:17;;;;;;;2.08;1.60;;;;;;;18.31;49.00;102282.91;6122742;23;20449;-55
2023/05/20 04:22:46;;;;;;;3.42;1.75;;;;;;;18.30;48.96;102289.28;6122849;23;20033;-55
2023/05/20 04:25:12;;;;;;;4.43;1.88;;;;;;;18.32;48.91;102283.78;6122743;23;20014;-55
2023/05/20 04:27:38;;;;;;;4.45;1.80;;;;;;;18.31;49.17;102292.84;6098114;23;20006;-55
2023/05/20 04:30:05;;;;;;;2.92;1.73;;;;;;;18.30;48.92;102285.75;6098896;23;20029;-55
2023/05/20 04:32:33;;;;;;;2.00;1.80;;;;;;;18.30;49.29;102294.69;6124699;23;20002;-55
2023/05/20 04:35:00;;;;;;;2.60;1.77;;;;;;;18.30;48.86;102286.59;6124366;23;20002;-55
2023/05/20 04:37:26;;;;;;;3.95;1.70;;;;;;;18.30;48.77;102291.97;6124371;23;20014;-55
2023/05/20 04:39:51;;;;;;;2.05;1.85;;;;;;;18.30;48.73;102286.59;6124648;23;20013;-55
2023/05/20 04:42:21;;;;;;;2.00;1.70;;;;;;;18.31;48.81;102291.00;6124525;23;20020;-55
2023/05/20 04:44:47;;;;;;;2.92;1.70;;;;;;;18.31;48.81;102288.28;6124442;23;20014;-55
2023/05/20 04:47:13;;;;;;;5.85;2.10;;;;;;;18.31;48.86;102291.00;6124333;23;20013;-55
2023/05/20 04:49:38;;;;;;;2.40;1.60;;;;;;;18.32;49.16;102290.03;6124935;23;20013;-55
2023/05/20 04:52:04;;;;;;;3.90;1.55;;;;;;;18.32;49.47;102295.44;6124349;23;20033;-55
2023/05/20 04:54:31;;;;;;;4.10;1.55;;;;;;;18.34;49.21;102300.72;6124550;23;20010;-55
2023/05/20 04:56:57;;;;;;;3.13;1.73;;;;;;;18.33;49.41;102302.56;6124389;23;20310;-55
2023/05/20 04:59:23;;;;;;;1.63;1.40;;;;;;;18.35;49.65;102297.03;6124389;23;20013;-55
2023/05/20 05:01:48;;;;;;;3.75;1.90;;;;;;;18.35;49.40;102295.22;6124411;23;20013;-55
2023/05/20 05:04:13;;;;;;;3.10;1.83;;;;;;;18.36;49.62;102296.91;6124160;23;20425;-55
2023/05/20 05:06:39;;;;;;;3.10;1.63;;;;;;;18.35;49.79;102292.50;6124866;23;20421;-55
2023/05/20 05:09:04;;;;;;;3.53;1.80;;;;;;;18.36;49.84;102291.53;6124306;23;20333;-55
2023/05/20 05:11:30;;;;;;;2.65;1.90;;;;;;;18.37;49.71;102276.19;6124358;23;20013;-55
2023/05/20 05:13:55;;;;;;;4.30;2.15;;;;;;;18.38;49.67;102279.78;6123873;23;20030;-55
2023/05/20 05:16:21;;;;;;;3.30;1.67;;;;;;;18.40;49.62;102277.81;6124243;23;20329;-55
2023/05/20 05:18:46;;;;;;;2.75;1.83;;;;;;;18.40;49.81;102280.53;6124009;23;20037;-55
2023/05/20 05:21:12;;;;;;;2.90;1.70;;;;;;;18.40;49.74;102275.97;6124171;23;20037;-55
2023/05/20 05:23:37;;;;;;;3.22;1.80;;;;;;;18.42;49.93;102278.56;6124739;23;20010;-55
2023/05/20 05:26:02;;;;;;;1.95;1.70;;;;;;;18.42;49.86;102281.25;6124026;23;20013;-55
2023/05/20 05:28:28;;;;;;;4.30;1.95;;;;;;;18.44;50.01;102276.63;6124268;23;20085;-55
2023/05/20 05:30:55;;;;;;;2.33;1.67;;;;;;;18.44;49.98;102273.91;6124112;23;20364;-55
2023/05/20 05:33:20;;;;;;;2.08;1.88;;;;;;;18.44;50.10;102277.47;6123768;23;20009;-55
2023/05/20 05:35:46;;;;;;;2.85;1.23;;;;;;;18.46;49.98;102282.75;6123962;23;20040;-55
2023/05/20 05:38:11;;;;;;;3.13;1.73;;;;;;;18.46;50.23;102271.97;6124568;23;20013;-55
2023/05/20 05:40:37;;;;;;;2.63;1.80;;;;;;;18.46;50.12;102271.97;6124541;23;20496;-55
2023/05/20 05:43:02;;;;;;;5.00;2.03;;;;;;;18.46;50.42;102269.28;6124210;23;20013;-55
2023/05/20 05:45:28;;;;;;;2.28;1.80;;;;;;;18.47;50.46;102271.84;6123497;23;20006;-55
2023/05/20 05:47:53;;;;;;;2.55;1.60;;;;;;;18.48;50.43;102278.09;6123707;23;20006;-55
2023/05/20 05:50:19;;;;;;;3.22;1.70;;;;;;;18.48;50.61;102267.31;6123760;23;20014;-56
2023/05/20 05:52:45;;;;;;;3.28;1.73;;;;;;;18.49;50.74;102274.44;6123665;23;20016;-55
2023/05/20 05:55:11;;;;;;;3.38;1.80;;;;;;;18.49;50.86;102267.22;6124634;23;20006;-55
2023/05/20 05:57:36;;;;;;;2.67;1.60;;;;;;;18.50;51.03;102270.75;6123418;23;20036;-55
2023/05/20 06:00:03;;;;;;;4.30;1.83;;;;;;;18.50;51.38;102276.16;6123439;23;20112;-55
2023/05/20 06:02:29;;;;;;;3.80;1.83;;;;;;;18.52;51.33;102276.88;6123668;23;20449;-55
2023/05/20 06:04:54;;;;;;;8.57;2.05;;;;;;;18.52;51.97;102277.78;6123232;23;20040;-55
2023/05/20 06:07:20;;;;;;;11.63;2.20;;;;;;;18.54;52.02;102283.03;6123522;23;20077;-55
2023/05/20 06:09:46;;;;;;;4.55;1.90;;;;;;;18.54;51.97;102272.25;6123382;23;20010;-55
2023/05/20 06:12:11;;;;;;;11.52;2.53;;;;;;;18.55;52.22;102268.59;6123225;23;20041;-55
2023/05/20 06:14:37;;;;;;;8.23;2.10;;;;;;;18.56;52.27;102267.59;6123177;23;20006;-55
2023/05/20 06:17:02;;;;;;;8.80;2.10;;;;;;;18.58;52.47;102275.56;6123869;23;20049;-56
2023/05/20 06:19:28;;;;;;;9.50;2.20;;;;;;;18.58;52.63;102273.72;6122998;23;20089;-55
2023/05/20 06:21:53;;;;;;;9.10;2.55;;;;;;;18.59;52.69;102266.53;6123979;23;20306;-56
2023/05/20 06:24:18;;;;;;;6.70;2.05;;;;;;;18.60;52.72;102266.41;6123539;23;20369;-55
2023/05/20 06:26:44;;;;;;;2.42;1.70;;;;;;;18.60;52.37;102252.91;6123233;23;20070;-56
2023/05/20 06:29:10;;;;;;;4.88;1.85;;;;;;;18.61;52.53;102256.47;6123773;23;20006;-55
2023/05/20 06:31:36;;;;;;;4.93;2.28;;;;;;;18.62;52.70;102258.16;6122942;23;20014;-55
2023/05/20 06:34:01;;;;;;;6.10;2.20;;;;;;;18.62;52.57;102247.38;6123161;23;20014;-55
2023/05/20 06:36:27;;;;;;;6.97;2.08;;;;;;;18.63;52.82;102244.56;6122922;23;20005;-56
2023/05/20 06:38:52;;;;;;;6.57;2.13;;;;;;;18.63;52.81;102244.56;6123156;23;20017;-55
2023/05/20 06:41:18;;;;;;;10.57;2.10;;;;;;;18.65;53.08;102245.31;6123377;23;20009;-55
2023/05/20 06:43:43;;;;;;;5.00;2.00;;;;;;;18.67;52.99;102235.25;6123918;23;20447;-55
2023/05/20 06:46:09;;;;;;;5.00;1.70;;;;;;;18.67;52.79;102239.81;6123276;23;20010;-55
2023/05/20 06:48:34;;;;;;;5.93;2.15;;;;;;;18.68;52.79;102241.53;6123147;23;20014;-55
2023/05/20 06:50:59;;;;;;;4.20;1.88;;;;;;;18.69;52.52;102249.50;6096938;23;20084;-56
2023/05/20 06:53:25;;;;;;;6.32;1.98;;;;;;;18.69;52.41;102233.31;6123111;23;20195;-55
2023/05/20 06:55:54;;;;;;;4.57;1.95;;;;;;;18.69;52.57;102230.59;6123450;23;20002;-55
2023/05/20 06:58:20;;;;;;;2.33;1.75;;;;;;;18.70;52.46;102235.03;6123182;23;20120;-55
2023/05/20 07:00:46;;;;;;;3.70;1.63;;;;;;;18.70;52.58;102221.56;6124015;23;20201;-55
2023/05/20 07:03:11;;;;;;;2.50;1.70;;;;;;;18.71;52.42;102225.97;6123767;23;20010;-55
2023/05/20 07:05:36;;;;;;;5.10;1.80;;;;;;;18.72;52.30;102227.69;6123114;23;20012;-55
2023/05/20 07:08:02;;;;;;;3.78;2.20;;;;;;;18.74;52.43;102230.28;6123080;23;20005;-56
2023/05/20 07:10:28;;;;;;;4.55;1.67;;;;;;;18.75;52.25;102226.59;6121770;23;20017;-55
2023/05/20 07:12:53;;;;;;;3.92;1.70;;;;;;;18.75;52.31;102227.47;6121213;23;20026;-55
2023/05/20 07:15:18;;;;;;;4.70;1.95;;;;;;;18.76;52.27;102223.78;6121276;23;20006;-55
2023/05/20 07:17:44;;;;;;;7.40;1.70;;;;;;;18.76;52.27;102229.16;6121858;23;20017;-55
2023/05/20 07:20:09;;;;;;;6.00;2.05;;;;;;;18.75;52.10;102222.06;6121583;23;20043;-55
2023/05/20 07:22:35;;;;;;;7.80;1.88;;;;;;;18.76;52.41;102212.13;6122005;23;20014;-55
2023/05/20 07:25:01;;;;;;;5.13;1.77;;;;;;;18.78;52.35;102223.66;6123084;23;20014;-55
2023/05/20 07:27:27;;;;;;;4.25;1.70;;;;;;;18.78;52.27;102215.56;6123832;23;20006;-55
2023/05/20 07:29:53;;;;;;;4.63;1.75;;;;;;;18.78;52.28;102212.03;6123621;23;20010;-55
2023/05/20 07:32:18;;;;;;;4.00;1.65;;;;;;;18.79;52.45;102205.63;6124009;23;20006;-52
2023/05/20 07:34:43;;;;;;;1.60;1.50;;;;;;;18.80;52.98;102218.16;6124376;23;20006;-53
2023/05/20 07:37:11;;;;;;;2.45;1.60;;;;;;;18.80;52.51;102216.34;6124029;23;20009;-51
2023/05/20 07:39:37;;;;;;;3.78;1.85;;;;;;;18.80;52.52;102218.16;6123687;23;20483;-53
2023/05/20 07:42:03;;;;;;;5.68;1.73;;;;;;;18.80;52.46;102205.53;6123005;23;20081;-53
2023/05/20 07:44:28;;;;;;;3.40;1.80;;;;;;;18.82;52.56;102198.19;6123065;23;20005;-52
2023/05/20 07:46:54;;;;;;;6.40;1.75;;;;;;;18.81;52.44;102203.69;6123364;23;20076;-55
2023/05/20 07:49:20;;;;;;;5.47;2.00;;;;;;;18.84;52.42;102203.47;6122934;23;20478;-55
2023/05/20 07:51:46;;;;;;;6.25;1.70;;;;;;;18.83;52.47;102199.03;6123753;23;20037;-55
2023/05/20 07:54:11;;;;;;;4.00;1.80;;;;;;;18.82;52.50;102198.19;6123546;23;20476;-55
2023/05/20 07:56:37;;;;;;;2.75;1.58;;;;;;;18.85;52.62;102202.47;6123772;23;20002;-55
2023/05/20 07:59:02;;;;;;;3.22;1.50;;;;;;;18.83;52.75;102204.44;6123679;23;20445;-55
2023/05/20 08:01:28;;;;;;;2.22;1.50;;;;;;;18.84;52.63;102209.72;6098185;23;20114;-55
2023/05/20 08:03:54;;;;;;;1.85;1.55;;;;;;;18.86;51.99;102201.50;6125465;23;20010;-54
2023/05/20 08:06:19;;;;;;;3.88;1.88;;;;;;;18.84;52.67;102187.28;6125452;23;20014;-55
2023/05/20 08:08:46;;;;;;;3.75;1.65;;;;;;;18.85;52.74;102188.97;6126069;23;20006;-55
2023/05/20 08:11:11;;;;;;;3.15;1.80;;;;;;;18.85;52.85;102199.78;6125628;23;20053;-55
2023/05/20 08:13:37;;;;;;;3.47;1.63;;;;;;;18.86;52.62;102188.03;6125295;23;20018;-55
2023/05/20 08:16:03;;;;;;;2.58;1.55;;;;;;;18.85;52.71;102188.97;6125482;23;20010;-55
2023/05/20 08:18:28;;;;;;;8.00;1.88;;;;;;;18.85;52.60;102184.47;6099407;23;20006;-55
2023/05/20 08:20:54;;;;;;;4.43;1.67;;;;;;;18.86;52.71;102190.72;6125481;23;20017;-55
2023/05/20 08:23:20;;;;;;;3.15;1.83;;;;;;;18.86;52.66;102186.19;6125351;23;20329;-55
2023/05/20 08:25:48;;;;;;;3.55;1.65;;;;;;;18.88;52.47;102183.34;6125791;23;20032;-55
2023/05/20 08:28:13;;;;;;;5.75;1.67;;;;;;;18.87;52.45;102182.50;6125289;23;20496;-55
2023/05/20 08:30:39;;;;;;;2.65;1.80;;;;;;;18.89;52.20;102182.41;6125154;23;20010;-55
2023/05/20 08:33:04;;;;;;;2.85;1.88;;;;;;;18.88;52.52;102180.66;6125134;23;20049;-55
2023/05/20 08:35:30;;;;;;;2.78;1.60;;;;;;;18.88;52.37;102176.13;6125539;23;20006;-55
2023/05/20 08:37:55;;;;;;;2.70;1.65;;;;;;;18.88;52.45;102175.25;6125229;23;20311;-55
2023/05/20 08:40:21;;;;;;;1.95;1.50;;;;;;;18.89;52.31;102169.75;6125184;23;20013;-55
2023/05/20 08:42:49;;;;;;;3.88;1.95;;;;;;;18.89;52.73;102177.84;6125564;23;20016;-55
2023/05/20 08:45:17;;;;;;;2.13;1.83;;;;;;;18.89;52.62;102172.44;6125381;23;20002;-55
2023/05/20 08:47:43;;;;;;;3.00;1.60;;;;;;;18.91;52.52;102177.75;6125179;23;20006;-55
2023/05/20 08:50:10;;;;;;;2.67;1.83;;;;;;;18.91;52.51;102170.50;6125485;23;20006;-51
2023/05/20 08:52:41;;;;;;;4.22;1.73;;;;;;;18.92;52.32;102160.53;6125431;23;20009;-53
2023/05/20 08:55:08;;;;;;;4.00;1.70;;;;;;;18.92;52.38;102166.81;6125149;23;20006;-52
2023/05/20 08:57:35;;;;;;;3.40;1.63;;;;;;;18.93;52.48;102160.44;6125130;23;20010;-52
2023/05/20 09:00:11;;;;;;;3.67;1.88;;;;;;;18.93;52.35;102165.81;6125222;23;20329;-53
2023/05/20 09:02:37;;;;;;;1.88;1.65;;;;;;;18.94;52.16;102167.56;6125002;23;20014;-53
2023/05/20 09:05:04;;;;;;;3.38;1.80;;;;;;;18.94;51.97;102161.28;6124810;23;20053;-51
2023/05/20 09:07:29;;;;;;;2.65;1.60;;;;;;;18.95;52.43;102163.03;6124914;23;20037;-53
2023/05/20 09:09:57;;;;;;;2.60;1.80;;;;;;;18.94;52.19;102148.66;6124809;23;20232;-52
2023/05/20 09:12:22;;;;;;;3.03;1.73;;;;;;;18.96;51.79;102145.81;6124731;23;20097;-53
2023/05/20 09:14:48;;;;;;;3.03;1.33;;;;;;;18.96;52.31;102143.13;6125185;23;20049;-52
2023/05/20 09:17:13;;;;;;;2.10;1.75;;;;;;;18.97;52.32;102154.81;6125187;23;20010;-53
2023/05/20 09:19:39;;;;;;;2.53;1.42;;;;;;;18.98;52.28;102153.81;6124788;23;20006;-52
2023/05/20 09:22:04;;;;;;;2.20;1.60;;;;;;;18.98;52.01;102148.41;6124861;23;20084;-51
2023/05/20 09:24:30;;;;;;;1.67;1.50;;;;;;;18.97;51.97;102144.84;6124829;23;20002;-53
2023/05/20 09:26:57;;;;;;;3.50;1.75;;;;;;;18.99;52.04;102150.13;6124693;23;20010;-53
2023/05/20 09:29:23;;;;;;;2.97;1.67;;;;;;;19.00;51.96;102143.75;6124985;23;20085;-53
2023/05/20 09:31:49;;;;;;;2.78;1.55;;;;;;;19.00;52.09;102141.94;6125431;23;20362;-53
2023/05/20 09:34:15;;;;;;;3.50;1.77;;;;;;;19.00;51.97;102146.44;6124460;23;20101;-53
2023/05/20 09:36:43;;;;;;;2.65;1.30;;;;;;;19.00;51.87;102151.84;6124568;23;19998;-52
2023/05/20 09:39:13;;;;;;;1.67;1.58;;;;;;;19.02;51.95;102148.06;6125045;23;20064;-53
2023/05/20 09:41:48;;;;;;;2.22;1.80;;;;;;;19.02;51.91;102144.47;6124987;23;20037;-53
2023/05/20 09:44:15;;;;;;;3.78;1.58;;;;;;;19.02;51.97;102144.47;6124921;23;20487;-53
2023/05/20 09:46:42;;;;;;;2.80;1.42;;;;;;;19.03;51.73;102147.06;6124729;23;20329;-53
2023/05/20 09:49:10;;;;;;;3.08;1.80;;;;;;;19.03;51.91;102147.06;6124170;23;20014;-52
2023/05/20 09:51:35;;;;;;;1.85;1.70;;;;;;;19.03;51.79;102141.66;6124479;23;20421;-53
2023/05/20 09:54:02;;;;;;;2.83;1.70;;;;;;;19.03;51.85;102141.66;6098106;23;20014;-53
2023/05/20 09:56:28;;;;;;;2.75;1.65;;;;;;;19.06;51.75;102143.28;6123757;23;20417;-53
2023/05/20 09:58:57;;;;;;;2.05;1.80;;;;;;;19.05;52.01;102137.00;6123847;23;20006;-52
2023/05/20 10:01:23;;;;;;;1.90;1.40;;;;;;;19.05;51.82;102134.31;6124438;23;20029;-53
2023/05/20 10:03:50;;;;;;;2.80;1.70;;;;;;;19.06;51.67;102127.09;6098466;23;20422;-53
2023/05/20 10:06:42;;;;;;;2.65;1.88;;;;;;;19.07;51.76;102124.25;6123607;23;20001;-53
2023/05/20 10:09:20;;;;;;;2.17;1.35;;;;;;;19.08;51.95;102125.97;6123665;23;20006;-53
2023/05/20 10:12:13;;;;;;;3.10;1.77;;;;;;;19.08;51.74;102128.66;6123538;23;20029;-53
2023/05/20 10:15:02;;;;;;;2.55;1.50;;;;;;;19.09;51.62;102116.88;6123689;23;20017;-52
2023/05/20 10:17:43;;;;;;;3.35;1.83;;;;;;;19.09;51.74;102116.88;6123900;23;20321;-53
2023/05/20 10:20:10;;;;;;;2.47;1.73;;;;;;;19.08;51.69;102108.94;6123532;23;20092;-53
2023/05/20 10:22:38;;;;;;;3.40;1.80;;;;;;;19.09;51.68;102102.53;6123295;23;20310;-53
2023/05/20 10:25:06;;;;;;;3.95;1.55;;;;;;;19.08;51.72;102115.19;6122634;23;20006;-53
2023/05/20 10:27:45;;;;;;;3.03;1.30;;;;;;;19.08;51.91;102104.38;6097698;23;20456;-53
2023/05/20 10:30:18;;;;;;;3.80;1.40;;;;;;;19.09;51.77;102108.78;6123662;23;20029;-52
2023/05/20 10:32:56;;;;;;;2.05;1.63;;;;;;;19.10;51.74;102113.22;6123512;23;20010;-52
2023/05/20 10:35:26;;;;;;;1.98;1.55;;;;;;;19.11;51.86;102090.66;6124009;23;20043;-53
2023/05/20 10:37:55;;;;;;;1.52;1.42;;;;;;;19.11;51.74;102093.34;6123447;23;20029;-53
2023/05/20 10:40:21;;;;;;;2.00;1.40;;;;;;;19.13;51.60;102098.59;6123813;23;20006;-52
2023/05/20 10:42:47;;;;;;;1.70;1.60;;;;;;;19.12;51.52;102095.03;6123160;23;20512;-53
2023/05/20 10:45:29;;;;;;;2.45;1.40;;;;;;;19.16;51.83;102094.81;6123082;23;20089;-53
2023/05/20 10:47:57;;;;;;;2.00;1.50;;;;;;;19.16;51.86;102089.41;6098138;23;20493;-53
2023/05/20 10:50:34;;;;;;;2.53;1.80;;;;;;;19.16;51.97;102078.59;6123972;23;20013;-53
2023/05/20 10:53:04;;;;;;;2.95;1.70;;;;;;;19.17;51.70;102080.31;6122566;23;20006;-51
2023/05/20 10:55:40;;;;;;;3.40;1.50;;;;;;;19.18;51.91;102076.66;6123162;23;20013;-53
2023/05/20 10:58:06;;;;;;;1.85;1.50;;;;;;;19.18;51.98;102073.94;6122681;23;20006;-53
2023/05/20 11:00:38;;;;;;;2.50;1.60;;;;;;;19.18;51.68;102082.03;6122374;23;20013;-53
2023/05/20 11:03:05;;;;;;;5.22;1.58;;;;;;;19.19;51.97;102083.75;6123007;23;20010;-52
2023/05/20 11:05:31;;;;;;;2.08;1.77;;;;;;;19.20;51.71;102089.03;6122898;23;20002;-52
2023/05/20 11:08:03;;;;;;;4.57;1.60;;;;;;;19.20;51.73;102077.38;6123136;23;20157;-53
2023/05/20 11:10:30;;;;;;;1.75;1.50;;;;;;;19.21;51.62;102061.06;6123163;23;20429;-52
2023/05/20 11:12:56;;;;;;;2.45;1.48;;;;;;;19.20;51.77;102064.72;6123486;23;20353;-53
2023/05/20 11:15:25;;;;;;;4.80;2.17;;;;;;;19.22;51.82;102061.91;6123607;23;20073;-53
2023/05/20 11:17:54;;;;;;;3.17;1.45;;;;;;;19.24;51.71;102070.75;6122916;23;20077;-54
2023/05/20 11:20:21;;;;;;;2.13;1.67;;;;;;;19.22;51.98;102056.50;6122616;23;20092;-53
2023/05/20 11:22:49;;;;;;;2.22;1.30;;;;;;;19.24;51.77;102060.78;6122861;23;20029;-52